Time;durP1;ratioP1;P1;durP2;ratioP2;P2;SDS_P1;SDS_P2;PMS_P1;PMS_P2;Temp;Humidity;BMP_temperature;BMP_pressure;BME280_temperature;BME280_humidity;BME280_pressure;Samples;Min_cycle;Max_cycle;Signal;HPM_P1;HPM_P2
2021/04/21 00:00:51;;;;;;;12.70;7.50;;;;;;;8.66;100.00;97987.88;5032831;28;20212;-71
2021/04/21 00:03:18;;;;;;;13.10;7.83;;;;;;;8.62;100.00;97986.59;5030893;28;20202;-71
2021/04/21 00:05:45;;;;;;;16.27;8.53;;;;;;;8.74;100.00;97982.44;5026965;28;20297;-71
2021/04/21 00:08:12;;;;;;;13.60;7.93;;;;;;;8.73;100.00;97979.97;5031925;28;20233;-71
2021/04/21 00:10:40;;;;;;;14.47;7.93;;;;;;;8.66;100.00;97987.03;5030793;28;20215;-72
2021/04/21 00:13:08;;;;;;;12.80;7.93;;;;;;;8.59;100.00;97984.34;5032218;28;20217;-72
2021/04/21 00:15:36;;;;;;;14.43;8.60;;;;;;;8.60;100.00;97979.84;5032398;28;20205;-71
2021/04/21 00:18:04;;;;;;;15.47;8.53;;;;;;;8.59;100.00;97981.69;5031444;28;20276;-71
2021/04/21 00:20:32;;;;;;;12.33;7.63;;;;;;;8.61;100.00;97984.13;5032554;28;20222;-72
2021/04/21 00:23:01;;;;;;;19.73;8.60;;;;;;;8.62;100.00;97975.16;5031740;28;20210;-71
2021/04/21 00:25:31;;;;;;;17.13;9.23;;;;;;;8.53;100.00;97974.44;5032797;28;20213;-71
2021/04/21 00:27:58;;;;;;;15.67;9.17;;;;;;;8.53;100.00;97966.47;5027911;28;20252;-72
2021/04/21 00:30:27;;;;;;;14.33;8.77;;;;;;;8.52;100.00;97977.31;5031775;28;20206;-71
2021/04/21 00:32:56;;;;;;;13.47;8.83;;;;;;;8.44;100.00;97972.94;5032512;28;20255;-71
2021/04/21 00:35:25;;;;;;;14.27;8.70;;;;;;;8.41;100.00;97970.63;5031432;28;20213;-71
2021/04/21 00:37:55;;;;;;;13.83;8.40;;;;;;;8.37;100.00;97973.88;5029689;28;20226;-71
2021/04/21 00:40:29;;;;;;;15.57;9.40;;;;;;;8.28;100.00;97967.00;5030449;28;20198;-71
2021/04/21 00:42:59;;;;;;;14.30;9.13;;;;;;;8.31;100.00;97959.47;5030538;28;20208;-71
2021/04/21 00:45:34;;;;;;;16.27;8.87;;;;;;;8.29;100.00;97964.16;5033030;28;20660;-72
2021/04/21 00:48:08;;;;;;;22.03;9.20;;;;;;;8.25;100.00;97954.09;5030853;28;20318;-72
2021/04/21 00:50:42;;;;;;;16.63;9.30;;;;;;;8.27;100.00;97966.19;5027426;28;20214;-72
2021/04/21 00:53:14;;;;;;;15.43;9.20;;;;;;;8.27;100.00;97960.84;5031063;28;20481;-71
2021/04/21 00:55:47;;;;;;;14.47;8.87;;;;;;;8.26;100.00;97956.56;5029663;28;20268;-71
2021/04/21 00:58:24;;;;;;;17.83;9.47;;;;;;;8.28;100.00;97961.69;5031746;28;20670;-72
2021/04/21 01:00:51;;;;;;;17.77;9.23;;;;;;;8.22;100.00;97955.28;5026130;28;20732;-72
2021/04/21 01:03:21;;;;;;;15.40;9.17;;;;;;;8.20;100.00;97961.78;5026433;28;20684;-71
2021/04/21 01:05:52;;;;;;;16.23;9.57;;;;;;;8.10;100.00;97958.56;5027469;28;20221;-73
2021/04/21 01:08:34;;;;;;;15.17;8.97;;;;;;;8.13;100.00;97952.91;5029356;28;20232;-72
2021/04/21 01:11:03;;;;;;;17.03;9.07;;;;;;;8.17;100.00;97947.00;5028740;28;20204;-71
2021/04/21 01:13:34;;;;;;;16.97;9.10;;;;;;;7.95;100.00;97952.47;5030200;28;20243;-71
2021/04/21 01:16:01;;;;;;;16.53;9.93;;;;;;;7.99;100.00;97954.59;5025589;28;20240;-72
2021/04/21 01:18:29;;;;;;;18.70;9.57;;;;;;;8.07;100.00;97943.81;5023364;28;20204;-72
2021/04/21 01:21:02;;;;;;;16.63;9.00;;;;;;;8.13;100.00;97940.41;5027990;28;20303;-71
2021/04/21 01:23:58;;;;;;;17.83;9.60;;;;;;;8.06;100.00;97944.84;5028621;28;20709;-71
2021/04/21 01:26:48;;;;;;;15.00;9.20;;;;;;;8.00;100.00;97942.09;5030876;28;20223;-71
2021/04/21 01:29:18;;;;;;;16.67;8.73;;;;;;;7.80;100.00;97939.22;5026133;28;20283;-72
2021/04/21 01:31:48;;;;;;;14.13;8.37;;;;;;;7.89;100.00;97937.28;5028707;28;20232;-71
2021/04/21 01:34:18;;;;;;;15.60;9.13;;;;;;;7.95;100.00;97941.84;5025755;28;20701;-71
2021/04/21 01:36:45;;;;;;;17.87;10.03;;;;;;;7.96;100.00;97938.19;5029496;28;20593;-71
2021/04/21 01:39:13;;;;;;;15.53;9.07;;;;;;;7.90;100.00;97942.41;5029887;28;20202;-71
2021/04/21 01:41:43;;;;;;;16.53;9.73;;;;;;;7.84;100.00;97937.84;5025455;28;20218;-71
2021/04/21 01:44:14;;;;;;;16.20;9.47;;;;;;;7.90;100.00;97937.09;5028975;28;20211;-72
2021/04/21 01:46:46;;;;;;;16.70;9.57;;;;;;;7.86;100.00;97943.78;5031023;28;20228;-72
2021/04/21 01:49:50;;;;;;;17.00;9.83;;;;;;;7.76;100.00;97940.59;5033201;28;20226;-72
2021/04/21 01:52:31;;;;;;;17.93;10.30;;;;;;;7.75;100.00;97941.59;5030151;28;20204;-71
2021/04/21 01:55:03;;;;;;;18.10;10.10;;;;;;;7.68;100.00;97940.69;5031126;28;20216;-71
2021/04/21 01:57:35;;;;;;;17.00;9.87;;;;;;;7.58;100.00;97939.31;5026085;28;20227;-73
2021/04/21 02:00:08;;;;;;;19.17;10.40;;;;;;;7.64;100.00;97939.41;5029780;28;20861;-71
2021/04/21 02:02:38;;;;;;;18.60;10.53;;;;;;;7.70;100.00;97938.66;5028810;28;20207;-73
2021/04/21 02:05:13;;;;;;;18.27;11.23;;;;;;;7.59;100.00;97939.13;5028312;28;20200;-72
2021/04/21 02:07:48;;;;;;;18.63;10.90;;;;;;;7.60;100.00;97934.63;5027755;28;20227;-71
2021/04/21 02:10:29;;;;;;;20.00;10.87;;;;;;;7.61;100.00;97941.63;5023033;28;20256;-72
2021/04/21 02:13:21;;;;;;;21.40;10.53;;;;;;;7.57;100.00;97937.69;5027026;28;20587;-71
2021/04/21 02:16:11;;;;;;;16.20;10.67;;;;;;;7.57;100.00;97938.47;5023605;28;20715;-73
2021/04/21 02:19:08;;;;;;;19.10;11.20;;;;;;;7.52;100.00;97935.56;5030847;28;20195;-72
2021/04/21 02:21:40;;;;;;;17.27;11.07;;;;;;;7.59;100.00;97939.13;5029044;28;20612;-71
2021/04/21 02:24:17;;;;;;;20.87;10.43;;;;;;;7.63;100.00;97939.59;5029358;28;20223;-72
2021/04/21 02:26:49;;;;;;;18.73;10.33;;;;;;;7.64;100.00;97944.72;5030209;28;20234;-71
2021/04/21 02:29:21;;;;;;;19.50;10.93;;;;;;;7.56;100.00;97947.47;5024784;28;20223;-71
2021/04/21 02:32:04;;;;;;;20.13;10.80;;;;;;;7.53;100.00;97939.88;5030676;28;20213;-71
2021/04/21 02:34:37;;;;;;;23.63;12.77;;;;;;;7.36;100.00;97945.56;5022040;28;20196;-71
2021/04/21 02:37:08;;;;;;;20.27;10.93;;;;;;;7.40;100.00;97952.97;5021044;28;20259;-71
2021/04/21 02:39:41;;;;;;;21.70;11.60;;;;;;;7.46;100.00;97944.25;5030901;28;20196;-71
2021/04/21 02:42:11;;;;;;;23.67;12.60;;;;;;;7.34;100.00;97950.19;5017966;28;20223;-71
2021/04/21 02:44:49;;;;;;;22.80;12.50;;;;;;;7.35;100.00;97951.84;5021446;28;20208;-72
2021/04/21 02:47:24;;;;;;;22.93;13.07;;;;;;;7.45;100.00;97949.75;5025603;28;20606;-72
2021/04/21 02:49:58;;;;;;;24.43;12.00;;;;;;;7.34;100.00;97944.88;5030898;28;20722;-72
2021/04/21 02:52:32;;;;;;;27.60;14.13;;;;;;;7.34;100.00;97956.34;5023911;28;20254;-71
2021/04/21 02:55:13;;;;;;;24.37;13.67;;;;;;;7.32;100.00;97947.72;5030130;28;20206;-71
2021/04/21 02:57:49;;;;;;;24.07;13.33;;;;;;;7.30;100.00;97948.94;5029528;28;20239;-71
2021/04/21 03:00:23;;;;;;;25.63;13.37;;;;;;;7.40;100.00;97950.31;5021217;28;20214;-71
2021/04/21 03:03:01;;;;;;;23.80;12.73;;;;;;;7.42;100.00;97942.16;5021532;28;20214;-71
2021/04/21 03:05:30;;;;;;;28.63;13.90;;;;;;;7.33;100.00;97952.06;5028844;28;20206;-71
2021/04/21 03:07:59;;;;;;;27.90;14.17;;;;;;;7.16;100.00;97945.22;5029066;28;20210;-71
2021/04/21 03:10:30;;;;;;;20.63;11.77;;;;;;;7.17;100.00;97948.72;5026809;28;20204;-71
2021/04/21 03:13:09;;;;;;;23.77;12.07;;;;;;;7.14;100.00;97943.78;5026089;28;20207;-72
2021/04/21 03:15:39;;;;;;;23.80;13.47;;;;;;;7.14;100.00;97941.94;5026792;28;20750;-71
2021/04/21 03:18:08;;;;;;;21.37;11.60;;;;;;;7.16;100.00;97945.22;5029900;28;20246;-71
2021/04/21 03:20:35;;;;;;;20.07;11.80;;;;;;;7.21;100.00;97942.06;5029975;28;20198;-71
2021/04/21 03:23:04;;;;;;;19.30;11.50;;;;;;;7.11;100.00;97944.94;5030219;28;20690;-72
2021/04/21 03:25:33;;;;;;;24.13;12.10;;;;;;;7.07;100.00;97937.53;5023219;28;20215;-71
2021/04/21 03:28:03;;;;;;;24.77;12.93;;;;;;;7.02;100.00;97943.41;5029656;28;20214;-72
2021/04/21 03:30:33;;;;;;;23.30;12.50;;;;;;;7.08;100.00;97941.84;5026794;28;20585;-72
2021/04/21 03:33:05;;;;;;;23.73;12.77;;;;;;;7.13;100.00;97940.31;5028813;28;20234;-71
2021/04/21 03:35:34;;;;;;;39.67;12.40;;;;;;;7.12;100.00;97933.34;5031287;28;20215;-71
2021/04/21 03:38:04;;;;;;;24.77;12.50;;;;;;;6.91;100.00;97932.41;5032184;28;20212;-71
2021/04/21 03:40:31;;;;;;;23.80;12.67;;;;;;;6.95;100.00;97936.34;5033479;28;20215;-72
2021/04/21 03:42:58;;;;;;;30.40;13.87;;;;;;;6.94;100.00;97934.66;5030879;28;20211;-71
2021/04/21 03:45:25;;;;;;;25.17;13.20;;;;;;;7.00;100.00;97932.13;5031998;28;20202;-72
2021/04/21 03:47:55;;;;;;;23.57;12.17;;;;;;;7.03;100.00;97925.63;5030737;28;20229;-72
2021/04/21 03:50:23;;;;;;;25.10;12.90;;;;;;;6.95;100.00;97928.38;5031201;28;20673;-71
2021/04/21 03:52:56;;;;;;;21.57;12.17;;;;;;;6.89;100.00;97931.72;5025997;28;20206;-72
2021/04/21 03:55:23;;;;;;;20.57;11.73;;;;;;;6.81;100.00;97927.31;5031767;28;20215;-71
2021/04/21 03:57:52;;;;;;;23.47;12.00;;;;;;;6.80;100.00;97925.69;5033714;28;20238;-71
2021/04/21 04:00:21;;;;;;;22.63;12.13;;;;;;;6.81;100.00;97923.88;5032383;28;20211;-71
2021/04/21 04:02:52;;;;;;;22.93;11.80;;;;;;;6.75;100.00;97930.69;5030603;28;20323;-71
2021/04/21 04:05:22;;;;;;;23.23;11.90;;;;;;;6.64;100.00;97922.34;5030194;28;20204;-71
2021/04/21 04:07:51;;;;;;;23.83;12.80;;;;;;;6.65;100.00;97924.81;5031264;28;20232;-71
2021/04/21 04:10:18;;;;;;;25.57;13.30;;;;;;;6.80;100.00;97923.03;5030325;28;20204;-72
2021/04/21 04:12:45;;;;;;;24.67;13.10;;;;;;;6.78;100.00;97926.88;5030442;28;20214;-72
2021/04/21 04:15:14;;;;;;;22.93;13.20;;;;;;;6.71;100.00;97925.94;5029751;28;20236;-71
2021/04/21 04:17:46;;;;;;;26.30;14.20;;;;;;;6.79;100.00;97921.38;5031192;28;20230;-71
2021/04/21 04:20:15;;;;;;;30.33;14.67;;;;;;;6.78;100.00;97926.88;5022652;28;20203;-71
2021/04/21 04:22:44;;;;;;;30.77;15.20;;;;;;;6.69;100.00;97926.13;5030585;28;20749;-71
2021/04/21 04:25:17;;;;;;;31.47;14.07;;;;;;;6.71;100.00;97928.59;5029376;28;20625;-71
2021/04/21 04:27:45;;;;;;;29.37;15.43;;;;;;;6.70;100.00;97919.81;5022586;28;20694;-71
2021/04/21 04:30:13;;;;;;;28.93;14.07;;;;;;;6.72;100.00;97928.44;5029267;28;20227;-71
2021/04/21 04:32:41;;;;;;;29.73;15.13;;;;;;;6.81;100.00;97929.19;5028093;28;20215;-71
2021/04/21 04:35:10;;;;;;;29.23;15.57;;;;;;;6.85;100.00;97941.06;5032241;28;20202;-71
2021/04/21 04:37:39;;;;;;;27.60;14.73;;;;;;;6.89;100.00;97937.03;5026709;28;20313;-71
2021/04/21 04:40:08;;;;;;;29.17;14.93;;;;;;;6.93;100.00;97939.16;5031869;28;20287;-73
2021/04/21 04:42:37;;;;;;;35.80;15.77;;;;;;;6.79;100.00;97942.59;5035073;28;20716;-73
2021/04/21 04:45:05;;;;;;;31.70;15.70;;;;;;;6.85;100.00;97936.56;5034559;28;21624;-74
2021/04/21 04:47:34;;;;;;;32.00;15.83;;;;;;;7.00;100.00;97939.28;5036822;28;20218;-72
2021/04/21 04:50:05;;;;;;;32.30;16.40;;;;;;;7.01;100.00;97933.78;5032909;28;20235;-76
2021/04/21 04:52:34;;;;;;;29.73;14.77;;;;;;;7.00;100.00;97940.09;5028253;28;20258;-74
2021/04/21 04:55:03;;;;;;;36.47;16.63;;;;;;;7.12;100.00;97945.78;5028826;28;20298;-75
2021/04/21 04:57:31;;;;;;;36.53;16.67;;;;;;;7.20;100.00;97949.19;5026996;28;20229;-73
2021/04/21 05:00:01;;;;;;;32.43;15.53;;;;;;;7.32;100.00;97963.66;5026827;28;20198;-72
2021/04/21 05:02:32;;;;;;;29.53;15.97;;;;;;;7.45;100.00;97957.72;5029603;28;20203;-74
2021/04/21 05:05:00;;;;;;;31.93;16.27;;;;;;;7.54;100.00;97956.63;5020213;28;20209;-74
2021/04/21 05:07:32;;;;;;;28.67;15.37;;;;;;;7.71;100.00;97950.94;5023472;28;20275;-73
2021/04/21 05:10:03;;;;;;;30.10;16.47;;;;;;;7.80;100.00;97960.47;5022106;28;20224;-75
2021/04/21 05:12:32;;;;;;;30.10;14.93;;;;;;;7.92;100.00;97958.97;5029996;28;20212;-74
2021/04/21 05:15:01;;;;;;;29.13;15.67;;;;;;;8.11;100.00;97960.22;5030873;28;20238;-74
2021/04/21 05:18:10;;;;;;;28.60;14.53;;;;;;;8.27;100.00;97965.38;5026137;28;20228;-73
2021/04/21 05:21:18;;;;;;;33.33;15.73;;;;;;;8.47;100.00;97963.75;5024943;28;20207;-73
2021/04/21 05:24:19;;;;;;;27.70;14.17;;;;;;;8.54;100.00;97968.13;5023206;28;20224;-73
2021/04/21 05:27:21;;;;;;;23.87;13.77;;;;;;;8.70;100.00;97975.03;5020980;28;20701;-72
2021/04/21 05:30:29;;;;;;;25.00;14.00;;;;;;;8.84;100.00;97977.59;5019548;28;20231;-74
2021/04/21 05:33:29;;;;;;;26.07;12.90;;;;;;;9.10;100.00;97971.72;5027319;28;20209;-73
2021/04/21 05:36:41;;;;;;;25.60;13.93;;;;;;;9.25;100.00;97983.09;5027378;28;20239;-72
2021/04/21 05:39:40;;;;;;;22.73;13.00;;;;;;;9.33;100.00;97981.09;5024848;28;20215;-69
2021/04/21 05:42:40;;;;;;;27.07;12.53;;;;;;;9.62;100.00;97980.06;5021582;28;20322;-74
2021/04/21 05:45:36;;;;;;;25.77;13.17;;;;;;;9.73;100.00;97977.69;5024386;28;20221;-75
2021/04/21 05:48:44;;;;;;;22.83;12.93;;;;;;;9.95;100.00;97976.56;5023980;28;20198;-77
2021/04/21 05:51:45;;;;;;;23.53;12.77;;;;;;;10.14;100.00;97973.22;4986308;28;20242;-72
2021/04/21 05:54:57;;;;;;;21.83;12.27;;;;;;;10.25;100.00;97974.50;5020945;28;20688;-71
2021/04/21 05:57:36;;;;;;;22.87;12.97;;;;;;;10.35;100.00;97977.63;5027777;28;20233;-71
2021/04/21 06:00:39;;;;;;;24.57;13.73;;;;;;;10.44;100.00;97984.38;5026261;28;20252;-71
2021/04/21 06:03:07;;;;;;;20.87;12.30;;;;;;;10.54;100.00;97982.16;5010904;28;20206;-72
2021/04/21 06:05:34;;;;;;;27.70;14.37;;;;;;;10.60;100.00;97978.72;5020677;28;20656;-71
2021/04/21 06:08:11;;;;;;;23.83;12.77;;;;;;;10.90;100.00;97978.13;5023691;28;20802;-72
2021/04/21 06:10:38;;;;;;;21.93;13.17;;;;;;;10.50;100.00;97976.41;5026813;28;20578;-71
2021/04/21 06:13:05;;;;;;;22.57;12.17;;;;;;;10.58;100.00;97986.06;5026510;28;20210;-71
2021/04/21 06:15:33;;;;;;;25.60;13.40;;;;;;;10.50;100.00;97981.75;5023226;28;20202;-70
2021/04/21 06:18:01;;;;;;;27.00;14.20;;;;;;;10.33;100.00;97990.31;5028831;28;20233;-72
2021/04/21 06:20:36;;;;;;;33.57;13.87;;;;;;;10.23;100.00;97989.06;5025518;28;20210;-70
2021/04/21 06:23:08;;;;;;;22.60;13.27;;;;;;;10.74;100.00;97994.53;5028412;28;20234;-71
2021/04/21 06:25:36;;;;;;;22.70;12.70;;;;;;;11.14;100.00;97990.06;5026213;28;20218;-75
2021/04/21 06:28:17;;;;;;;22.73;12.40;;;;;;;10.98;100.00;97993.97;5019911;28;20206;-77
2021/04/21 06:30:45;;;;;;;25.87;13.53;;;;;;;11.06;100.00;97988.41;5025816;28;20584;-75
2021/04/21 06:33:13;;;;;;;22.97;12.90;;;;;;;11.22;100.00;97989.88;5026582;28;20219;-77
2021/04/21 06:35:42;;;;;;;24.17;12.50;;;;;;;11.41;100.00;97983.72;5020437;28;20212;-72
2021/04/21 06:38:09;;;;;;;23.20;13.13;;;;;;;11.10;100.00;97991.50;5024402;28;20206;-69
2021/04/21 06:40:37;;;;;;;22.50;14.03;;;;;;;10.75;100.00;97995.38;5025436;28;20213;-69
2021/04/21 06:43:05;;;;;;;25.37;13.33;;;;;;;11.61;100.00;97999.75;5026521;28;20219;-72
2021/04/21 06:45:33;;;;;;;22.77;13.07;;;;;;;12.09;100.00;97999.25;5023064;28;20913;-74
2021/04/21 06:48:02;;;;;;;21.70;12.70;;;;;;;12.29;100.00;97997.31;5022557;28;20547;-73
2021/04/21 06:50:30;;;;;;;23.30;13.73;;;;;;;11.95;100.00;97992.28;5020753;28;20235;-74
2021/04/21 06:53:03;;;;;;;27.53;13.27;;;;;;;11.87;100.00;97989.03;5024180;28;20571;-73
2021/04/21 06:55:31;;;;;;;26.47;13.27;;;;;;;11.88;100.00;97996.00;5025437;28;20202;-74
2021/04/21 06:57:57;;;;;;;26.97;12.53;;;;;;;12.52;99.94;97992.25;5027543;28;20208;-73
2021/04/21 07:00:26;;;;;;;32.47;13.13;;;;;;;12.82;94.10;98001.38;5030406;28;20283;-73
2021/04/21 07:02:55;;;;;;;25.37;15.10;;;;;;;13.04;92.37;97997.38;5027997;28;20207;-74
2021/04/21 07:05:34;;;;;;;30.67;14.00;;;;;;;13.39;89.04;97997.72;5026682;28;20246;-73
2021/04/21 07:08:11;;;;;;;24.43;13.73;;;;;;;13.34;89.40;97994.88;5029638;28;20214;-73
2021/04/21 07:10:40;;;;;;;29.97;14.77;;;;;;;13.38;87.16;97996.09;5023810;28;20206;-73
2021/04/21 07:13:10;;;;;;;21.07;13.03;;;;;;;13.88;87.08;97997.69;5029518;28;20203;-73
2021/04/21 07:15:38;;;;;;;23.17;13.47;;;;;;;13.63;87.00;97991.53;5027796;28;20206;-74
2021/04/21 07:18:06;;;;;;;24.63;13.67;;;;;;;13.36;88.93;97998.16;5031448;28;20339;-73
2021/04/21 07:20:34;;;;;;;23.67;13.13;;;;;;;13.98;85.31;97993.44;5029226;28;20213;-73
2021/04/21 07:23:01;;;;;;;22.90;13.87;;;;;;;14.25;81.21;97996.69;5032723;28;20214;-74
2021/04/21 07:25:29;;;;;;;20.17;12.27;;;;;;;14.00;85.04;97990.53;5030110;28;20293;-73
2021/04/21 07:27:57;;;;;;;21.03;13.30;;;;;;;14.60;79.39;98005.78;5030698;28;20202;-73
2021/04/21 07:30:32;;;;;;;25.40;13.60;;;;;;;14.24;80.36;97997.75;5033755;28;20215;-73
2021/04/21 07:32:59;;;;;;;23.73;13.27;;;;;;;14.12;82.28;97996.81;5032684;28;20247;-73
2021/04/21 07:35:29;;;;;;;23.83;13.87;;;;;;;13.63;84.22;98000.38;5037909;28;20220;-73
2021/04/21 07:37:57;;;;;;;24.00;13.57;;;;;;;14.63;79.43;97995.38;5053463;28;20195;-73
2021/04/21 07:40:31;;;;;;;26.37;13.63;;;;;;;14.68;77.74;97998.22;5050553;28;20291;-73
2021/04/21 07:43:14;;;;;;;27.47;14.40;;;;;;;14.96;76.66;98003.00;5045468;28;20672;-73
2021/04/21 07:45:53;;;;;;;25.87;14.97;;;;;;;15.08;75.79;97999.31;5037841;28;20273;-73
2021/04/21 07:48:44;;;;;;;26.37;14.40;;;;;;;14.39;78.84;97990.94;5032585;28;20576;-73
2021/04/21 07:51:44;;;;;;;31.43;14.80;;;;;;;14.18;79.22;97993.25;5026758;28;20208;-73
2021/04/21 07:54:27;;;;;;;27.20;14.33;;;;;;;15.12;75.96;98003.19;4931761;29;20213;-73
2021/04/21 07:57:17;;;;;;;22.53;14.47;;;;;;;15.30;74.50;98000.41;4930650;29;20317;-73
2021/04/21 07:59:45;;;;;;;21.63;13.90;;;;;;;14.70;76.37;97995.31;5000277;28;20205;-73
2021/04/21 08:02:18;;;;;;;23.83;14.23;;;;;;;15.45;71.88;98008.06;5028132;28;20317;-73
2021/04/21 08:04:53;;;;;;;23.23;13.67;;;;;;;16.36;67.43;98018.00;5025644;28;20570;-73
2021/04/21 08:07:42;;;;;;;24.50;13.87;;;;;;;15.62;68.75;98015.25;5031939;28;20717;-73
2021/04/21 08:10:23;;;;;;;23.53;13.00;;;;;;;16.56;65.71;98014.97;5027736;28;20225;-73
2021/04/21 08:12:51;;;;;;;27.37;13.60;;;;;;;15.48;68.70;98013.81;5033711;28;20292;-73
2021/04/21 08:15:18;;;;;;;27.23;13.40;;;;;;;16.59;64.75;98015.31;5027200;28;20209;-73
2021/04/21 08:17:56;;;;;;;23.80;13.67;;;;;;;15.96;65.62;98017.09;5018761;28;20318;-73
2021/04/21 08:20:33;;;;;;;21.53;12.93;;;;;;;16.35;65.48;98012.84;5030027;28;20652;-73
2021/04/21 08:23:01;;;;;;;21.30;13.27;;;;;;;16.13;64.83;98025.28;5033181;28;20202;-73
2021/04/21 08:25:28;;;;;;;21.27;11.70;;;;;;;16.28;63.05;98020.25;5028366;28;20689;-73
2021/04/21 08:27:56;;;;;;;21.57;12.67;;;;;;;16.25;64.00;98023.41;5033489;28;20619;-73
2021/04/21 08:30:24;;;;;;;23.13;13.00;;;;;;;15.65;65.59;98024.72;5032109;28;20218;-73
2021/04/21 08:32:51;;;;;;;21.90;13.10;;;;;;;16.15;65.28;98025.88;5029458;28;20207;-73
2021/04/21 08:35:18;;;;;;;19.33;12.90;;;;;;;16.72;57.39;98038.47;5032679;28;20259;-73
2021/04/21 08:37:45;;;;;;;22.63;12.77;;;;;;;16.19;59.84;98029.72;5031403;28;20783;-73
2021/04/21 08:40:15;;;;;;;20.47;12.03;;;;;;;16.96;57.41;98026.53;5025478;28;20203;-72
2021/04/21 08:42:42;;;;;;;20.20;11.40;;;;;;;16.75;57.12;98033.41;5028297;28;20222;-70
2021/04/21 08:45:11;;;;;;;20.33;12.40;;;;;;;17.09;56.50;98034.34;5030188;28;20571;-73
2021/04/21 08:47:40;;;;;;;18.37;11.57;;;;;;;17.30;54.26;98039.03;5028612;28;20319;-76
2021/04/21 08:50:09;;;;;;;17.53;11.53;;;;;;;16.98;50.36;98051.38;5024149;28;20304;-74
2021/04/21 08:52:43;;;;;;;21.47;10.80;;;;;;;17.32;51.56;98037.72;5028028;28;20202;-74
2021/04/21 08:55:12;;;;;;;18.30;10.53;;;;;;;16.69;49.35;98045.16;5027640;28;20280;-74
2021/04/21 08:57:39;;;;;;;16.17;9.50;;;;;;;16.55;48.56;98048.31;5024875;28;20313;-74
2021/04/21 09:00:07;;;;;;;13.30;9.20;;;;;;;16.75;47.11;98056.84;5029069;28;20203;-74
2021/04/21 09:02:35;;;;;;;16.83;10.50;;;;;;;16.81;49.27;98050.50;5030367;28;20208;-75
2021/04/21 09:05:04;;;;;;;19.73;10.87;;;;;;;16.67;50.63;98044.56;5026565;28;20198;-75
2021/04/21 09:07:31;;;;;;;17.57;10.13;;;;;;;16.70;50.97;98038.69;5025850;28;20230;-75
2021/04/21 09:09:59;;;;;;;18.43;11.13;;;;;;;17.02;50.96;98039.06;5030821;28;20229;-76
2021/04/21 09:12:26;;;;;;;16.10;10.10;;;;;;;17.18;49.00;98043.69;5031869;28;20202;-75
2021/04/21 09:14:52;;;;;;;16.07;9.47;;;;;;;18.18;47.13;98046.22;5031065;28;20203;-75
2021/04/21 09:17:21;;;;;;;18.27;9.60;;;;;;;17.88;48.13;98045.75;5030595;28;20707;-75
2021/04/21 09:19:49;;;;;;;17.00;10.43;;;;;;;17.63;49.68;98042.63;5029006;28;20229;-75
2021/04/21 09:22:15;;;;;;;16.57;10.53;;;;;;;18.23;48.10;98048.19;5024934;28;20225;-74
2021/04/21 09:24:43;;;;;;;17.87;10.20;;;;;;;17.84;46.90;98055.38;5026079;28;20255;-74
2021/04/21 09:27:31;;;;;;;14.60;9.50;;;;;;;17.83;44.99;98051.06;5023678;28;20262;-73
2021/04/21 09:30:11;;;;;;;13.10;9.00;;;;;;;18.14;42.34;98063.16;5026618;28;20223;-73
2021/04/21 09:32:47;;;;;;;13.87;9.70;;;;;;;18.02;42.44;98062.41;5027112;28;20299;-73
2021/04/21 09:35:21;;;;;;;14.50;10.10;;;;;;;18.31;41.88;98056.69;5026003;28;20257;-75
2021/04/21 09:37:48;;;;;;;13.50;9.10;;;;;;;18.64;41.36;98056.59;5031047;28;20223;-73
2021/04/21 09:40:33;;;;;;;13.23;8.80;;;;;;;17.97;40.91;98065.88;5030160;28;20206;-76
2021/04/21 09:43:00;;;;;;;12.80;8.40;;;;;;;18.61;41.70;98054.41;5024350;28;20212;-75
2021/04/21 09:45:35;;;;;;;12.47;8.77;;;;;;;17.88;40.93;98061.94;5028214;28;20212;-74
2021/04/21 09:48:07;;;;;;;12.07;7.83;;;;;;;17.52;41.61;98050.81;5019610;28;20203;-76
2021/04/21 09:50:35;;;;;;;13.40;8.33;;;;;;;18.37;40.24;98054.88;5025234;28;20223;-75
2021/04/21 09:53:04;;;;;;;14.23;9.10;;;;;;;18.63;40.78;98048.75;5033953;28;20208;-77
2021/04/21 09:55:31;;;;;;;15.33;8.73;;;;;;;19.09;40.14;98040.09;5031464;28;20304;-74
2021/04/21 09:57:58;;;;;;;14.67;9.63;;;;;;;18.29;40.02;98052.59;5027556;28;20204;-75
2021/04/21 10:00:27;;;;;;;13.53;8.93;;;;;;;18.21;40.37;98048.41;5028232;28;20296;-77
2021/04/21 10:02:55;;;;;;;13.37;9.17;;;;;;;18.97;39.51;98042.13;5026535;28;20221;-74
2021/04/21 10:05:27;;;;;;;13.67;7.83;;;;;;;18.46;37.22;98059.63;5027197;28;20212;-77
2021/04/21 10:08:15;;;;;;;10.60;8.00;;;;;;;18.84;37.76;98050.66;5029503;28;20341;-75
2021/04/21 10:10:43;;;;;;;13.03;8.00;;;;;;;19.19;36.41;98056.44;5030358;28;20294;-74
2021/04/21 10:13:17;;;;;;;12.07;8.30;;;;;;;17.91;38.14;98057.94;5027935;28;20241;-76
2021/04/21 10:15:45;;;;;;;11.30;6.83;;;;;;;18.60;38.50;98049.25;5022130;28;20213;-75
2021/04/21 10:18:13;;;;;;;11.13;7.37;;;;;;;18.72;36.60;98047.25;5027091;28;20305;-77
2021/04/21 10:20:41;;;;;;;12.97;7.13;;;;;;;18.72;37.07;98053.47;5025306;28;20211;-75
2021/04/21 10:23:08;;;;;;;10.47;6.93;;;;;;;19.13;34.12;98058.28;5024698;28;20211;-77
2021/04/21 10:25:37;;;;;;;9.27;6.50;;;;;;;19.06;32.51;98070.38;5032228;28;20222;-77
2021/04/21 10:28:04;;;;;;;10.10;6.90;;;;;;;19.22;33.15;98055.97;5034955;28;20295;-77
2021/04/21 10:30:31;;;;;;;7.90;5.43;;;;;;;19.35;32.41;98059.09;5037281;28;20277;-76
2021/04/21 10:32:58;;;;;;;10.10;5.67;;;;;;;19.92;31.17;98071.00;5040810;28;20268;-78
2021/04/21 10:35:24;;;;;;;8.63;5.70;;;;;;;19.62;33.13;98064.50;5044659;28;20209;-75
2021/04/21 10:37:51;;;;;;;9.53;6.00;;;;;;;19.38;32.12;98052.34;5045046;28;20248;-76
2021/04/21 10:40:29;;;;;;;8.97;5.80;;;;;;;19.88;31.47;98060.94;5039017;28;20212;-78
2021/04/21 10:42:59;;;;;;;9.57;6.97;;;;;;;18.86;34.32;98043.09;5029623;28;20209;-76
2021/04/21 10:45:28;;;;;;;14.30;6.77;;;;;;;20.04;33.52;98041.03;5028152;28;20206;-77
2021/04/21 10:47:56;;;;;;;15.50;6.87;;;;;;;19.39;33.88;98043.16;5024137;28;20232;-76
2021/04/21 10:50:37;;;;;;;12.37;7.27;;;;;;;19.10;35.08;98025.53;5028501;28;20222;-72
2021/04/21 10:53:04;;;;;;;12.90;7.47;;;;;;;19.32;34.35;98023.63;5023180;28;20209;-74
2021/04/21 10:55:36;;;;;;;10.27;6.77;;;;;;;19.87;34.05;98015.97;5022521;28;20344;-73
2021/04/21 10:58:08;;;;;;;8.87;6.30;;;;;;;20.04;32.67;98031.00;5016838;28;20213;-74
2021/04/21 11:00:37;;;;;;;11.53;7.00;;;;;;;19.52;33.90;98019.22;5021959;28;20252;-74
2021/04/21 11:03:07;;;;;;;11.50;7.13;;;;;;;19.63;33.02;98020.09;5020226;28;20711;-73
2021/04/21 11:05:48;;;;;;;9.07;6.47;;;;;;;19.66;33.39;98015.00;5017092;28;20209;-74
2021/04/21 11:08:16;;;;;;;10.93;7.20;;;;;;;19.60;33.60;98017.94;5016510;28;20201;-76
2021/04/21 11:11:03;;;;;;;10.87;7.73;;;;;;;19.10;33.76;98017.41;5021769;28;20698;-75
2021/04/21 11:13:46;;;;;;;11.37;7.40;;;;;;;19.98;34.12;98017.69;5018473;28;20232;-74
2021/04/21 11:16:39;;;;;;;9.97;6.97;;;;;;;20.76;32.36;98013.00;5018952;28;20292;-73
2021/04/21 11:19:31;;;;;;;13.27;7.53;;;;;;;20.25;32.36;98023.84;5020384;28;20209;-74
2021/04/21 11:22:27;;;;;;;10.80;6.87;;;;;;;20.92;31.62;98024.78;5018130;28;20289;-73
2021/04/21 11:25:20;;;;;;;9.70;6.63;;;;;;;20.49;30.98;98022.38;5018575;28;20271;-74
2021/04/21 11:27:47;;;;;;;11.10;7.30;;;;;;;19.11;32.24;98017.13;5015406;28;20238;-75
2021/04/21 11:30:51;;;;;;;13.87;7.10;;;;;;;19.67;31.28;98023.94;5020297;28;20226;-74
2021/04/21 11:33:55;;;;;;;11.10;6.67;;;;;;;20.40;30.34;98013.09;5019226;28;20214;-74
2021/04/21 11:36:46;;;;;;;8.87;5.80;;;;;;;21.60;28.93;98021.66;5016701;28;20226;-78
2021/04/21 11:39:13;;;;;;;12.30;6.07;;;;;;;21.50;28.38;98025.19;5017172;28;20225;-77
2021/04/21 11:41:45;;;;;;;12.70;5.77;;;;;;;20.46;28.38;98029.13;5018022;28;20236;-76
2021/04/21 11:44:46;;;;;;;7.73;5.50;;;;;;;21.36;26.78;98025.94;5019391;28;20213;-77
2021/04/21 11:47:44;;;;;;;10.00;5.90;;;;;;;20.28;28.29;98012.50;5017597;28;20621;-77
2021/04/21 11:50:28;;;;;;;11.77;6.33;;;;;;;20.84;29.82;98004.38;5016534;28;20312;-76